createdAt,value
2022-09-30T00:00:13.209Z,71.50
2022-09-30T00:02:15.228Z,71.70
2022-09-30T00:04:18.737Z,71.80
2022-09-30T00:06:20.695Z,72.00
2022-09-30T00:08:22.470Z,71.80
2022-09-30T00:10:24.242Z,73.00
2022-09-30T00:12:26.040Z,72.00
2022-09-30T00:14:27.789Z,72.70
2022-09-30T00:16:33.117Z,73.00
2022-09-30T00:18:34.921Z,72.40
2022-09-30T00:20:36.670Z,73.10
2022-09-30T00:22:38.406Z,73.00
2022-09-30T00:24:40.122Z,73.30
2022-09-30T00:26:42.042Z,73.30
2022-09-30T00:28:46.057Z,73.10
2022-09-30T00:30:47.916Z,73.60
2022-09-30T00:32:51.160Z,73.90
2022-09-30T00:34:52.930Z,73.80
2022-09-30T00:36:55.567Z,73.90
2022-09-30T00:38:57.199Z,73.30
2022-09-30T00:40:59.317Z,74.10
2022-09-30T00:43:01.080Z,73.90
2022-09-30T00:45:05.856Z,74.10
2022-09-30T00:47:25.429Z,73.50
2022-09-30T00:49:28.708Z,74.10
2022-09-30T00:51:34.899Z,73.80
2022-09-30T00:53:44.290Z,74.40
2022-09-30T00:55:54.714Z,74.40
2022-09-30T00:57:58.623Z,74.40
2022-09-30T01:00:01.310Z,74.50
2022-09-30T01:02:03.690Z,74.40
2022-09-30T01:04:10.041Z,74.40
2022-09-30T01:06:13.415Z,74.40
2022-09-30T01:08:17.159Z,74.30
2022-09-30T01:10:19.095Z,74.70
2022-09-30T01:12:24.912Z,74.30
2022-09-30T01:14:28.408Z,74.30
2022-09-30T01:16:50.166Z,74.20
2022-09-30T01:19:02.382Z,74.20
2022-09-30T01:21:40.788Z,74.00
2022-09-30T01:24:06.135Z,73.80
2022-09-30T01:26:35.677Z,73.80
2022-09-30T01:29:07.382Z,73.80
2022-09-30T01:31:22.884Z,73.90
2022-09-30T01:33:35.272Z,74.00
2022-09-30T01:35:47.651Z,74.10
2022-09-30T01:37:59.611Z,74.20
2022-09-30T01:40:07.519Z,74.20
2022-09-30T01:42:20.821Z,74.30
2022-09-30T01:44:33.394Z,74.20
2022-09-30T01:46:39.605Z,74.30
2022-09-30T01:48:46.825Z,73.80
2022-09-30T01:50:54.975Z,74.40
2022-09-30T01:53:06.487Z,74.40
2022-09-30T01:55:13.462Z,74.60
2022-09-30T01:57:20.527Z,74.40
2022-09-30T01:59:26.496Z,73.80
2022-09-30T02:01:32.227Z,74.40
2022-09-30T02:03:39.419Z,74.40
2022-09-30T02:05:45.579Z,74.30
2022-09-30T02:07:54.459Z,73.80
2022-09-30T02:10:00.924Z,74.40
2022-09-30T02:12:07.835Z,74.40
2022-09-30T02:14:14.957Z,74.40
2022-09-30T02:16:24.111Z,74.40
2022-09-30T02:18:30.550Z,73.80
2022-09-30T02:20:37.607Z,74.40
2022-09-30T02:22:43.577Z,74.40
2022-09-30T02:24:47.118Z,74.40
2022-09-30T02:26:50.997Z,74.40
2022-09-30T02:28:57.021Z,73.90
2022-09-30T02:31:02.044Z,74.50
2022-09-30T02:33:07.633Z,74.50
2022-09-30T02:35:13.677Z,74.60
2022-09-30T02:37:21.727Z,74.60
2022-09-30T02:39:29.487Z,73.60
2022-09-30T02:41:38.585Z,74.20
2022-09-30T02:43:40.888Z,73.80
2022-09-30T02:45:49.372Z,74.30
2022-09-30T02:48:09.150Z,73.90
2022-09-30T02:50:16.746Z,74.40
2022-09-30T02:52:27.659Z,74.50
2022-09-30T02:54:34.353Z,74.50
2022-09-30T02:56:45.945Z,74.60
2022-09-30T02:58:49.902Z,74.10
2022-09-30T03:00:53.637Z,74.60
2022-09-30T03:03:00.416Z,74.70
2022-09-30T03:05:03.302Z,74.60
2022-09-30T03:07:05.119Z,74.70
2022-09-30T03:09:08.677Z,74.00
2022-09-30T03:11:15.081Z,74.60
2022-09-30T03:13:35.504Z,74.60
2022-09-30T03:15:48.540Z,74.60
2022-09-30T03:18:16.938Z,74.00
2022-09-30T03:20:36.254Z,74.60
2022-09-30T03:23:03.378Z,74.70
2022-09-30T03:25:16.391Z,74.80
2022-09-30T03:27:28.469Z,74.80
2022-09-30T03:29:37.623Z,74.40
2022-09-30T03:31:49.589Z,75.30
2022-09-30T03:33:55.449Z,75.20
2022-09-30T03:36:01.888Z,75.20
2022-09-30T03:38:13.196Z,74.70
2022-09-30T03:40:28.056Z,75.20
2022-09-30T03:42:36.431Z,74.60
2022-09-30T03:44:45.456Z,75.30
2022-09-30T03:46:51.181Z,74.70
2022-09-30T03:48:56.259Z,74.40
2022-09-30T03:51:00.214Z,75.20
2022-09-30T03:53:02.536Z,75.20
2022-09-30T03:55:06.578Z,74.60
2022-09-30T03:57:09.738Z,75.40
2022-09-30T03:59:12.754Z,74.70
2022-09-30T04:01:18.325Z,74.60
2022-09-30T04:03:21.661Z,75.20
2022-09-30T04:05:23.475Z,75.00
2022-09-30T04:09:27.960Z,74.70
2022-09-30T04:11:29.915Z,75.30
2022-09-30T04:13:32.995Z,75.90
2022-09-30T04:15:35.248Z,76.10
2022-09-30T04:19:39.059Z,75.40
2022-09-30T04:21:40.841Z,75.30
2022-09-30T04:23:43.231Z,75.50
2022-09-30T04:25:52.098Z,75.50
2022-09-30T04:27:54.104Z,75.20
2022-09-30T04:29:57.189Z,75.70
2022-09-30T04:31:59.077Z,76.00
2022-09-30T04:34:01.035Z,75.70
2022-09-30T04:36:03.428Z,76.00
2022-09-30T04:38:05.280Z,75.40
2022-09-30T04:40:08.091Z,76.10
2022-09-30T04:42:10.036Z,76.00
2022-09-30T04:44:11.767Z,76.20
2022-09-30T04:46:16.003Z,75.50
2022-09-30T04:48:18.291Z,75.40
2022-09-30T04:50:20.071Z,75.80
2022-09-30T04:52:21.837Z,75.90
2022-09-30T04:54:23.671Z,75.60
2022-09-30T04:56:25.514Z,76.00
2022-09-30T04:58:28.046Z,75.20
2022-09-30T05:00:29.970Z,75.90
2022-09-30T05:02:33.126Z,75.90
2022-09-30T05:04:34.883Z,75.90
2022-09-30T05:06:36.648Z,75.50
2022-09-30T05:08:41.756Z,75.30
2022-09-30T05:10:53.889Z,75.90
2022-09-30T05:12:56.341Z,76.00
2022-09-30T05:14:58.127Z,75.70
2022-09-30T05:17:00.069Z,75.30
2022-09-30T05:19:03.406Z,74.30
2022-09-30T05:21:05.543Z,74.70
2022-09-30T05:23:07.348Z,75.20
2022-09-30T05:25:09.372Z,75.40
2022-09-30T05:27:11.160Z,74.90
2022-09-30T05:29:13.042Z,74.10
2022-09-30T05:31:14.904Z,75.10
2022-09-30T05:33:17.002Z,75.00
2022-09-30T05:35:20.133Z,75.70
2022-09-30T05:37:21.887Z,75.80
2022-09-30T05:39:23.783Z,74.90
2022-09-30T05:41:25.748Z,76.00
2022-09-30T05:43:27.500Z,76.30
2022-09-30T05:45:29.285Z,76.10
2022-09-30T05:47:31.331Z,76.30
2022-09-30T05:49:33.067Z,75.80
2022-09-30T05:51:36.170Z,76.40
2022-09-30T05:53:38.871Z,76.50
2022-09-30T05:55:44.675Z,75.90
2022-09-30T05:57:49.075Z,75.70
2022-09-30T05:59:50.857Z,76.50
2022-09-30T06:01:52.647Z,76.50
2022-09-30T06:03:54.431Z,75.80
2022-09-30T06:05:56.618Z,75.70
2022-09-30T06:07:59.729Z,75.90
2022-09-30T06:10:01.544Z,76.10
2022-09-30T06:12:03.345Z,75.50
2022-09-30T06:14:05.107Z,76.80
2022-09-30T06:16:08.010Z,76.20
2022-09-30T06:18:12.807Z,76.10
2022-09-30T06:20:17.662Z,76.80
2022-09-30T06:22:19.429Z,76.40
2022-09-30T06:24:22.598Z,76.30
2022-09-30T06:26:24.339Z,76.40
2022-09-30T06:28:26.100Z,76.00
2022-09-30T06:30:31.634Z,76.70
2022-09-30T06:32:36.082Z,75.70
2022-09-30T06:34:37.827Z,76.30
2022-09-30T06:36:39.591Z,76.40
2022-09-30T06:38:41.294Z,75.40
2022-09-30T06:40:45.089Z,76.30
2022-09-30T06:42:46.960Z,76.10
2022-09-30T06:44:53.117Z,75.90
2022-09-30T06:46:55.339Z,76.00
2022-09-30T06:49:07.973Z,74.60
2022-09-30T06:51:12.724Z,74.80
2022-09-30T06:53:14.679Z,75.20
2022-09-30T06:55:16.729Z,75.20
2022-09-30T06:57:19.864Z,75.50
2022-09-30T06:59:21.734Z,75.30
2022-09-30T07:01:23.775Z,75.20
2022-09-30T07:03:27.753Z,75.40
2022-09-30T07:05:29.544Z,75.60
2022-09-30T07:07:31.331Z,75.40
2022-09-30T07:09:33.113Z,75.00
2022-09-30T07:11:35.415Z,75.60
2022-09-30T07:13:38.541Z,76.00
2022-09-30T07:15:42.272Z,75.70
2022-09-30T07:17:44.036Z,75.80
2022-09-30T07:19:45.966Z,76.50
2022-09-30T07:21:47.715Z,75.90
2022-09-30T07:23:49.441Z,76.60
2022-09-30T07:25:52.345Z,76.70
2022-09-30T07:27:54.083Z,76.20
2022-09-30T07:30:08.907Z,76.10
2022-09-30T07:32:12.196Z,76.00
2022-09-30T07:34:13.991Z,76.70
2022-09-30T07:36:16.087Z,76.80
2022-09-30T07:38:18.632Z,76.20
2022-09-30T07:40:20.401Z,76.20
2022-09-30T07:42:22.865Z,76.10
2022-09-30T07:44:25.003Z,76.70
2022-09-30T07:46:29.755Z,76.90
2022-09-30T07:48:31.913Z,76.20
2022-09-30T07:50:33.830Z,76.80
2022-09-30T07:52:35.600Z,76.90
2022-09-30T07:54:42.499Z,76.90
2022-09-30T07:59:08.505Z,76.80
2022-09-30T08:01:10.885Z,77.00
2022-09-30T08:03:14.029Z,76.90
2022-09-30T08:05:15.809Z,76.80
2022-09-30T08:07:18.452Z,76.80
2022-09-30T08:09:22.638Z,76.90
2022-09-30T08:11:25.729Z,76.70
2022-09-30T08:13:27.643Z,76.90
2022-09-30T08:15:29.407Z,76.80
2022-09-30T08:17:31.152Z,77.00
2022-09-30T08:19:34.342Z,77.10
2022-09-30T08:21:36.191Z,76.90
2022-09-30T08:23:38.114Z,77.20
2022-09-30T08:25:39.879Z,76.90
2022-09-30T08:27:41.634Z,76.90
2022-09-30T08:29:54.486Z,76.80
2022-09-30T08:31:57.882Z,76.30
2022-09-30T08:34:00.269Z,75.50
2022-09-30T08:36:04.621Z,76.10
2022-09-30T08:38:06.363Z,75.50
2022-09-30T08:40:18.880Z,76.10
2022-09-30T08:42:39.425Z,76.90
2022-09-30T08:44:45.099Z,76.20
2022-09-30T08:46:52.731Z,66.10
2022-09-30T08:49:07.280Z,67.60
2022-09-30T08:51:23.179Z,65.60
2022-09-30T08:53:29.039Z,68.40
2022-09-30T08:55:39.364Z,73.70
2022-09-30T08:57:47.386Z,71.30
2022-09-30T08:59:54.378Z,68.80
2022-09-30T09:02:02.369Z,68.90
2022-09-30T09:04:06.370Z,68.70
2022-09-30T09:06:25.813Z,68.50
2022-09-30T09:08:43.965Z,62.40
2022-09-30T09:10:48.978Z,63.40
2022-09-30T09:12:58.857Z,66.40
2022-09-30T09:15:18.361Z,67.00
2022-09-30T09:17:31.770Z,68.40
2022-09-30T09:19:39.902Z,68.00
2022-09-30T09:21:51.833Z,66.40
2022-09-30T09:23:57.435Z,68.20
2022-09-30T09:25:59.212Z,68.90
2022-09-30T09:28:03.353Z,70.60
2022-09-30T09:30:07.747Z,70.90
2022-09-30T09:32:14.232Z,70.70
2022-09-30T09:34:16.069Z,70.40
2022-09-30T09:36:39.185Z,70.20
2022-09-30T09:39:01.698Z,69.60
2022-09-30T09:41:20.653Z,70.30
2022-09-30T09:43:32.319Z,70.40
2022-09-30T09:45:41.215Z,70.70
2022-09-30T09:47:42.994Z,70.40
2022-09-30T09:49:46.030Z,70.70
2022-09-30T09:51:51.532Z,72.10
2022-09-30T09:53:57.134Z,71.60
2022-09-30T09:55:59.928Z,71.60
2022-09-30T09:58:06.268Z,71.20
2022-09-30T10:00:09.560Z,71.90
2022-09-30T10:02:23.117Z,72.10
2022-09-30T10:04:26.632Z,72.20
2022-09-30T10:06:43.999Z,72.10
2022-09-30T10:08:56.047Z,71.70
2022-09-30T10:11:00.165Z,72.30
2022-09-30T10:13:01.956Z,72.40
2022-09-30T10:15:27.797Z,72.50
2022-09-30T10:17:31.398Z,72.60
2022-09-30T10:19:34.852Z,72.10
2022-09-30T10:21:36.764Z,72.70
2022-09-30T10:23:40.339Z,72.80
2022-09-30T10:25:55.603Z,72.80
2022-09-30T10:27:59.760Z,72.80
2022-09-30T10:30:01.643Z,72.20
2022-09-30T10:32:08.404Z,72.50
2022-09-30T10:34:14.572Z,72.30
2022-09-30T10:36:18.679Z,72.30
2022-09-30T10:38:21.158Z,72.00
2022-09-30T10:40:27.179Z,72.60
2022-09-30T10:42:33.613Z,72.80
2022-09-30T10:44:42.890Z,73.00
2022-09-30T10:46:48.072Z,73.40
2022-09-30T10:48:51.694Z,73.10
2022-09-30T10:50:55.473Z,73.80
2022-09-30T10:53:01.469Z,74.00
2022-09-30T10:55:13.282Z,74.10
2022-09-30T10:57:21.339Z,74.20
2022-09-30T10:59:33.619Z,73.80
2022-09-30T11:01:41.283Z,74.40
2022-09-30T11:03:54.412Z,74.50
2022-09-30T11:05:58.690Z,74.60
2022-09-30T11:08:04.718Z,74.20
2022-09-30T11:10:18.519Z,74.80
2022-09-30T11:12:25.841Z,74.80
2022-09-30T11:14:35.525Z,74.90
2022-09-30T11:16:47.412Z,75.00
2022-09-30T11:18:53.854Z,74.40
2022-09-30T11:21:00.523Z,75.00
2022-09-30T11:23:06.754Z,75.10
2022-09-30T11:25:13.874Z,75.20
2022-09-30T11:27:24.502Z,75.20
2022-09-30T11:29:40.847Z,74.70
2022-09-30T11:31:52.399Z,75.20
2022-09-30T11:34:09.644Z,75.30
2022-09-30T11:36:20.790Z,75.40
2022-09-30T11:38:48.620Z,74.90
2022-09-30T11:41:01.132Z,75.40
2022-09-30T11:43:13.771Z,75.40
2022-09-30T11:45:31.394Z,75.40
2022-09-30T11:47:54.227Z,75.50
2022-09-30T11:50:16.791Z,75.00
2022-09-30T11:52:25.347Z,75.60
2022-09-30T11:54:39.979Z,75.50
2022-09-30T11:56:49.977Z,75.50
2022-09-30T11:58:57.622Z,75.00
2022-09-30T12:01:13.262Z,75.50
2022-09-30T12:03:21.844Z,75.50
2022-09-30T12:05:27.384Z,75.50
2022-09-30T12:07:39.175Z,75.50
2022-09-30T12:09:44.790Z,75.00
2022-09-30T12:11:52.008Z,75.60
2022-09-30T12:13:59.799Z,75.60
2022-09-30T12:16:06.197Z,75.60
2022-09-30T12:18:13.959Z,75.10
2022-09-30T12:20:20.658Z,75.60
2022-09-30T12:22:27.572Z,75.60
2022-09-30T12:24:33.702Z,75.60
2022-09-30T12:26:35.696Z,75.60
2022-09-30T12:28:42.127Z,75.20
2022-09-30T12:30:45.856Z,75.70
2022-09-30T12:33:21.332Z,75.70
2022-09-30T12:35:52.671Z,75.70
2022-09-30T12:38:07.699Z,75.70
2022-09-30T12:40:38.029Z,75.10
2022-09-30T12:42:52.137Z,75.80
2022-09-30T12:45:20.576Z,75.80
2022-09-30T12:47:44.329Z,75.80
2022-09-30T12:49:48.666Z,75.30
2022-09-30T12:51:54.449Z,75.80
2022-09-30T12:54:02.186Z,75.80
2022-09-30T12:56:05.650Z,75.80
2022-09-30T12:58:19.515Z,75.30
2022-09-30T13:00:23.618Z,75.90
2022-09-30T13:02:31.418Z,75.90
2022-09-30T13:04:36.282Z,75.90
2022-09-30T13:07:16.384Z,75.90
2022-09-30T13:09:20.821Z,75.50
2022-09-30T13:11:39.636Z,76.10
2022-09-30T13:13:59.001Z,76.00
2022-09-30T13:16:03.632Z,76.10
2022-09-30T13:18:42.844Z,75.60
2022-09-30T13:20:54.276Z,76.20
2022-09-30T13:23:00.151Z,76.20
2022-09-30T13:25:12.172Z,76.20
2022-09-30T13:27:14.357Z,76.20
2022-09-30T13:29:34.510Z,75.60
2022-09-30T13:32:03.298Z,76.20
2022-09-30T13:34:11.035Z,76.20
2022-09-30T13:36:26.690Z,76.20
2022-09-30T13:38:39.653Z,75.70
2022-09-30T13:41:01.201Z,76.20
2022-09-30T13:43:04.638Z,76.20
2022-09-30T13:45:12.534Z,76.20
2022-09-30T13:47:19.198Z,76.30
2022-09-30T13:49:25.078Z,75.80
2022-09-30T13:51:30.919Z,76.30
2022-09-30T13:53:37.311Z,76.30
2022-09-30T13:55:42.491Z,76.40
2022-09-30T13:57:54.625Z,76.40
2022-09-30T14:00:07.356Z,75.90
2022-09-30T14:02:54.196Z,76.50
2022-09-30T14:05:26.855Z,76.50
2022-09-30T14:07:41.267Z,75.90
2022-09-30T14:10:08.473Z,75.90
2022-09-30T14:12:20.384Z,76.50
2022-09-30T14:14:51.863Z,76.50
2022-09-30T14:17:07.687Z,76.60
2022-09-30T14:19:34.907Z,76.00
2022-09-30T14:21:41.875Z,76.50
2022-09-30T14:23:44.240Z,76.50
2022-09-30T14:25:57.064Z,76.50
2022-09-30T14:28:04.067Z,76.00
2022-09-30T14:30:12.709Z,76.00
2022-09-30T14:32:19.131Z,76.60
2022-09-30T14:34:22.912Z,76.50
2022-09-30T14:36:25.107Z,76.50
2022-09-30T14:38:29.980Z,76.50
2022-09-30T14:40:33.871Z,76.10
2022-09-30T14:42:40.696Z,76.70
2022-09-30T14:44:42.589Z,76.60
2022-09-30T14:46:46.871Z,76.70
2022-09-30T14:48:49.092Z,76.10
2022-09-30T14:50:55.937Z,76.60
2022-09-30T14:52:58.108Z,76.60
2022-09-30T14:54:59.956Z,76.60
2022-09-30T14:57:02.967Z,76.60
2022-09-30T14:59:17.784Z,76.10
2022-09-30T15:01:20.892Z,76.70
2022-09-30T15:03:23.091Z,76.70
2022-09-30T15:05:25.556Z,76.60
2022-09-30T15:07:27.383Z,76.60
2022-09-30T15:09:32.821Z,76.10
2022-09-30T15:11:39.505Z,76.70
2022-09-30T15:13:41.751Z,76.60
2022-09-30T15:15:45.399Z,76.70
2022-09-30T15:17:47.196Z,76.70
2022-09-30T15:19:49.702Z,76.10
2022-09-30T15:21:54.030Z,76.70
2022-09-30T15:23:58.970Z,76.70
2022-09-30T15:26:01.939Z,76.60
2022-09-30T15:28:03.866Z,76.60
2022-09-30T15:30:23.880Z,76.10
2022-09-30T15:32:29.606Z,76.60
2022-09-30T15:34:31.716Z,76.60
2022-09-30T15:36:36.271Z,76.70
2022-09-30T15:38:38.631Z,72.50
2022-09-30T15:40:45.377Z,72.40
2022-09-30T15:42:56.503Z,64.50
2022-09-30T15:44:58.392Z,65.60
2022-09-30T15:47:02.508Z,69.70
2022-09-30T15:49:28.491Z,73.80
2022-09-30T15:51:42.685Z,74.10
2022-09-30T15:53:48.302Z,73.40
2022-09-30T15:55:51.042Z,73.20
2022-09-30T15:57:53.098Z,73.20
2022-09-30T16:00:00.830Z,72.80
2022-09-30T16:02:02.645Z,73.50
2022-09-30T16:04:09.607Z,73.50
2022-09-30T16:06:14.719Z,73.50
2022-09-30T16:08:22.153Z,73.50
2022-09-30T16:10:23.921Z,72.70
2022-09-30T16:12:29.784Z,73.20
2022-09-30T16:14:34.115Z,73.30
2022-09-30T16:16:37.954Z,73.40
2022-09-30T16:18:43.953Z,73.00
2022-09-30T16:20:58.686Z,73.30
2022-09-30T16:23:00.419Z,73.60
2022-09-30T16:25:11.763Z,73.60
2022-09-30T16:27:29.855Z,73.70
2022-09-30T16:29:31.675Z,73.20
2022-09-30T16:31:33.497Z,73.90
2022-09-30T16:33:38.006Z,73.90
2022-09-30T16:35:41.962Z,73.90
2022-09-30T16:37:45.464Z,74.00
2022-09-30T16:39:47.370Z,73.50
2022-09-30T16:41:49.296Z,74.10
2022-09-30T16:43:51.101Z,74.10
2022-09-30T16:45:53.256Z,74.10
2022-09-30T16:47:57.023Z,74.10
2022-09-30T16:49:58.835Z,73.60
2022-09-30T16:52:01.020Z,74.20
2022-09-30T16:54:04.097Z,74.20
2022-09-30T16:56:06.487Z,74.30
2022-09-30T16:58:11.903Z,74.30
2022-09-30T17:00:15.437Z,73.80
2022-09-30T17:02:17.342Z,73.80
2022-09-30T17:04:19.119Z,74.40
2022-09-30T17:06:25.751Z,74.40
2022-09-30T17:08:27.656Z,74.50
2022-09-30T17:10:32.669Z,73.90
2022-09-30T17:12:34.411Z,74.50
2022-09-30T17:14:36.602Z,74.50
2022-09-30T17:16:38.897Z,74.60
2022-09-30T17:18:41.069Z,74.10
2022-09-30T17:20:44.512Z,74.60
2022-09-30T17:22:46.484Z,74.60
2022-09-30T17:24:48.492Z,74.70
2022-09-30T17:26:53.097Z,74.80
2022-09-30T17:29:00.266Z,74.20
2022-09-30T17:31:11.364Z,74.80
2022-09-30T17:33:13.255Z,74.80
2022-09-30T17:35:15.228Z,74.80
2022-09-30T17:37:17.019Z,74.80
2022-09-30T17:39:18.909Z,74.20
2022-09-30T17:41:20.671Z,74.70
2022-09-30T17:43:24.090Z,74.70
2022-09-30T17:45:26.060Z,74.70
2022-09-30T17:47:27.925Z,74.70
2022-09-30T17:49:33.919Z,74.20
2022-09-30T17:51:36.034Z,74.80
2022-09-30T17:53:37.803Z,74.80
2022-09-30T17:55:39.631Z,74.80
2022-09-30T17:57:41.478Z,74.80
2022-09-30T17:59:44.580Z,74.20
2022-09-30T18:01:46.352Z,74.60
2022-09-30T18:03:48.441Z,74.30
2022-09-30T18:05:57.021Z,74.10
2022-09-30T18:07:58.832Z,74.20
2022-09-30T18:10:00.863Z,73.80
2022-09-30T18:12:02.797Z,74.40
2022-09-30T18:14:04.555Z,74.50
2022-09-30T18:16:08.340Z,74.60
2022-09-30T18:18:10.179Z,74.60
2022-09-30T18:20:12.928Z,74.00
2022-09-30T18:22:14.702Z,74.70
2022-09-30T18:24:16.483Z,74.70
2022-09-30T18:26:18.600Z,74.90
2022-09-30T18:28:20.614Z,75.00
2022-09-30T18:30:22.738Z,74.80
2022-09-30T18:32:25.974Z,75.60
2022-09-30T18:34:27.759Z,76.20
2022-09-30T18:36:29.661Z,76.40
2022-09-30T18:38:31.425Z,76.40
2022-09-30T18:40:33.817Z,76.10
2022-09-30T18:42:35.574Z,77.10
2022-09-30T18:44:37.454Z,77.70
2022-09-30T18:46:39.486Z,77.70
2022-09-30T18:48:42.604Z,77.70
2022-09-30T18:50:44.366Z,78.30
2022-09-30T18:52:46.142Z,78.40
2022-09-30T18:54:47.879Z,78.90
2022-09-30T18:56:50.243Z,78.50
2022-09-30T18:58:52.141Z,78.00
2022-09-30T19:00:54.218Z,78.60
2022-09-30T19:02:56.946Z,78.70
2022-09-30T19:05:00.182Z,78.50
2022-09-30T19:07:02.131Z,78.70
2022-09-30T19:09:03.953Z,78.10
2022-09-30T19:11:10.677Z,78.80
2022-09-30T19:13:14.410Z,78.40
2022-09-30T19:15:16.348Z,78.30
2022-09-30T19:17:18.149Z,78.20
2022-09-30T19:19:19.868Z,78.00
2022-09-30T19:21:22.958Z,78.30
2022-09-30T19:23:24.789Z,78.30
2022-09-30T19:25:26.607Z,78.40
2022-09-30T19:27:28.350Z,78.30
2022-09-30T19:29:30.445Z,77.60
2022-09-30T19:31:33.126Z,78.10
2022-09-30T19:33:40.208Z,78.00
2022-09-30T19:35:51.067Z,78.00
2022-09-30T19:38:02.705Z,78.30
2022-09-30T19:40:19.692Z,77.70
2022-09-30T19:42:24.317Z,78.10
2022-09-30T19:44:26.052Z,78.20
2022-09-30T19:46:28.511Z,78.10
2022-09-30T19:48:32.967Z,78.00
2022-09-30T19:50:34.709Z,77.40
2022-09-30T19:52:41.862Z,78.20
2022-09-30T19:54:51.320Z,78.30
2022-09-30T19:56:53.030Z,78.30
2022-09-30T19:58:54.777Z,78.10
2022-09-30T20:00:56.644Z,77.70
2022-09-30T20:02:58.442Z,77.70
2022-09-30T20:05:00.189Z,78.20
2022-09-30T20:07:02.026Z,78.30
2022-09-30T20:09:05.358Z,78.40
2022-09-30T20:11:10.849Z,77.70
2022-09-30T20:13:12.776Z,78.30
2022-09-30T20:15:14.637Z,77.50
2022-09-30T20:17:16.395Z,78.30
2022-09-30T20:19:19.065Z,77.80
2022-09-30T20:21:20.633Z,78.70
2022-09-30T20:23:22.853Z,78.30
2022-09-30T20:25:24.628Z,78.30
2022-09-30T20:27:27.702Z,67.90
2022-09-30T20:29:29.472Z,65.90
2022-09-30T20:33:33.681Z,65.20
2022-09-30T20:35:35.482Z,69.60
2022-09-30T20:37:37.415Z,70.60
2022-09-30T20:39:39.179Z,73.10
2022-09-30T20:41:40.910Z,73.80
2022-09-30T20:43:44.107Z,73.50
2022-09-30T20:45:52.798Z,73.40
2022-09-30T20:47:54.602Z,74.30
2022-09-30T20:49:56.413Z,75.30
2022-09-30T20:51:58.146Z,75.80
2022-09-30T20:54:00.689Z,75.80
2022-09-30T20:56:02.808Z,75.90
2022-09-30T20:58:05.506Z,76.10
2022-09-30T21:00:10.311Z,75.70
2022-09-30T21:02:12.238Z,76.30
2022-09-30T21:06:18.000Z,75.90
2022-09-30T21:08:19.777Z,76.80
2022-09-30T21:10:21.539Z,76.20
2022-09-30T21:12:23.323Z,76.70
2022-09-30T21:14:25.369Z,76.70
2022-09-30T21:16:28.647Z,76.90
2022-09-30T21:18:30.689Z,76.90
2022-09-30T21:20:32.439Z,76.50
2022-09-30T21:22:34.341Z,77.10
2022-09-30T21:24:36.054Z,77.10
2022-09-30T21:26:37.874Z,77.20
2022-09-30T21:28:39.717Z,77.10
2022-09-30T21:30:41.501Z,76.50
2022-09-30T21:32:45.323Z,77.20
2022-09-30T21:34:47.040Z,77.20
2022-09-30T21:36:48.790Z,77.20
2022-09-30T21:40:57.606Z,76.60
2022-09-30T21:42:59.347Z,77.20
2022-09-30T21:45:01.290Z,77.10
2022-09-30T21:47:03.046Z,77.40
2022-09-30T21:51:10.405Z,76.90
2022-09-30T21:53:11.977Z,77.40
2022-09-30T21:55:13.870Z,77.30
2022-09-30T21:57:15.735Z,77.40
2022-09-30T21:59:17.477Z,76.80
2022-09-30T22:01:19.981Z,77.40
2022-09-30T22:03:22.031Z,77.40
2022-09-30T22:05:25.579Z,77.50
2022-09-30T22:07:27.359Z,77.40
2022-09-30T22:09:29.094Z,77.00
2022-09-30T22:11:31.695Z,77.50
2022-09-30T22:13:33.844Z,77.50
2022-09-30T22:15:35.720Z,77.50
2022-09-30T22:17:37.471Z,77.40
2022-09-30T22:19:39.263Z,76.60
2022-09-30T22:21:42.373Z,77.10
2022-09-30T22:23:46.653Z,77.00
2022-09-30T22:25:48.847Z,76.90
2022-09-30T22:27:51.026Z,76.80
2022-09-30T22:29:52.838Z,76.00
2022-09-30T22:31:54.797Z,76.50
2022-09-30T22:33:58.659Z,76.50
2022-09-30T22:36:01.054Z,76.40
2022-09-30T22:38:04.129Z,75.70
2022-09-30T22:40:06.599Z,75.60
2022-09-30T22:42:08.592Z,76.20
2022-09-30T22:44:10.404Z,76.00
2022-09-30T22:46:12.216Z,75.90
2022-09-30T22:48:13.982Z,75.90
2022-09-30T22:50:15.834Z,75.30
2022-09-30T22:52:17.626Z,75.80
2022-09-30T22:54:21.336Z,66.90
2022-09-30T22:56:23.520Z,61.80
2022-09-30T22:58:26.550Z,63.80
2022-09-30T23:00:28.306Z,64.30
2022-09-30T23:02:30.116Z,63.30
2022-09-30T23:04:31.969Z,64.60
2022-09-30T23:06:33.862Z,68.70
2022-09-30T23:08:37.226Z,69.10
2022-09-30T23:10:45.878Z,68.60
2022-09-30T23:12:47.631Z,68.60
2022-09-30T23:14:49.442Z,68.60
2022-09-30T23:16:51.502Z,69.10
2022-09-30T23:18:53.305Z,69.00
2022-09-30T23:20:56.200Z,68.10
2022-09-30T23:22:57.956Z,69.10
2022-09-30T23:24:59.674Z,68.80
2022-09-30T23:27:02.775Z,68.90
2022-09-30T23:29:06.656Z,69.40
2022-09-30T23:31:10.212Z,68.90
2022-09-30T23:33:11.959Z,69.50
2022-09-30T23:35:14.409Z,69.50
2022-09-30T23:37:16.133Z,69.80
2022-09-30T23:39:18.722Z,69.60
2022-09-30T23:41:20.367Z,70.10
2022-09-30T23:43:23.431Z,70.20
2022-09-30T23:45:25.194Z,70.90
2022-09-30T23:47:26.957Z,70.50
2022-09-30T23:49:28.710Z,70.20
2022-09-30T23:51:30.798Z,70.40
2022-09-30T23:53:34.213Z,70.70
2022-09-30T23:55:35.953Z,71.10
2022-09-30T23:57:37.791Z,70.90
2022-09-30T23:59:41.259Z,70.80
